Time;durP1;ratioP1;P1;durP2;ratioP2;P2;SDS_P1;SDS_P2;PMS_P1;PMS_P2;Temp;Humidity;BMP_temperature;BMP_pressure;BME280_temperature;BME280_humidity;BME280_pressure;Samples;Min_cycle;Max_cycle;Signal;HPM_P1;HPM_P2
2023/05/29 00:02:08;;;;;;;14.32;2.05;;;9.90;99.90;;;;;;4947845;29;20043;-72
2023/05/29 00:04:36;;;;;;;18.95;2.22;;;9.90;99.90;;;;;;4948910;28;20407;-72
2023/05/29 00:07:02;;;;;;;15.75;2.50;;;9.90;99.90;;;;;;4949094;28;20054;-72
2023/05/29 00:09:29;;;;;;;17.30;2.88;;;9.90;99.90;;;;;;4953471;28;20042;-72
2023/05/29 00:11:55;;;;;;;16.70;2.88;;;9.90;99.90;;;;;;4949641;28;20051;-73
2023/05/29 00:14:22;;;;;;;19.48;2.78;;;9.90;99.90;;;;;;4949708;29;20102;-72
2023/05/29 00:16:48;;;;;;;14.57;2.17;;;9.80;99.90;;;;;;4950138;29;20054;-73
2023/05/29 00:19:19;;;;;;;18.80;2.65;;;9.80;99.90;;;;;;4949396;28;20074;-72
2023/05/29 00:21:47;;;;;;;17.85;2.30;;;9.80;99.90;;;;;;4951262;29;20447;-72
2023/05/29 00:24:16;;;;;;;21.20;2.55;;;9.70;99.90;;;;;;4950407;29;20056;-72
2023/05/29 00:26:43;;;;;;;19.35;2.78;;;9.70;99.90;;;;;;4933982;29;20047;-72
2023/05/29 00:29:09;;;;;;;21.63;2.55;;;9.70;99.90;;;;;;4944894;28;20962;-72
2023/05/29 00:31:38;;;;;;;13.35;2.60;;;9.70;99.90;;;;;;4949348;29;20051;-73
2023/05/29 00:34:04;;;;;;;17.30;2.55;;;9.70;99.90;;;;;;4948510;29;20063;-72
2023/05/29 00:36:31;;;;;;;17.50;2.50;;;9.70;99.90;;;;;;4931915;29;20054;-71
2023/05/29 00:38:57;;;;;;;14.15;2.75;;;9.70;99.90;;;;;;4947450;29;20039;-71
2023/05/29 00:41:22;;;;;;;14.05;2.55;;;9.90;99.90;;;;;;4963934;28;20407;-73
2023/05/29 00:43:48;;;;;;;19.52;2.65;;;9.60;99.90;;;;;;4949536;29;20053;-73
2023/05/29 00:46:16;;;;;;;13.63;2.03;;;9.70;99.90;;;;;;4949692;29;20053;-70
2023/05/29 00:48:42;;;;;;;16.75;2.40;;;9.60;99.90;;;;;;4963102;28;20046;-70
2023/05/29 00:51:10;;;;;;;23.90;3.00;;;9.60;99.90;;;;;;4967998;28;20404;-71
2023/05/29 00:53:37;;;;;;;11.93;2.60;;;9.60;99.90;;;;;;4950848;28;20464;-70
2023/05/29 00:56:04;;;;;;;15.45;2.47;;;9.70;99.90;;;;;;4949707;28;20157;-70
2023/05/29 00:58:30;;;;;;;20.10;2.28;;;9.50;99.90;;;;;;4932368;29;20058;-70
2023/05/29 01:00:57;;;;;;;15.40;2.65;;;9.50;99.90;;;;;;4949082;28;20086;-70
2023/05/29 01:03:23;;;;;;;14.82;2.47;;;9.50;99.90;;;;;;4948468;29;20198;-69
2023/05/29 01:05:49;;;;;;;17.80;2.40;;;9.50;99.90;;;;;;4949977;28;20785;-69
2023/05/29 01:08:15;;;;;;;22.65;3.70;;;9.40;99.90;;;;;;4952204;28;20050;-70
2023/05/29 01:10:44;;;;;;;15.18;2.17;;;9.40;99.90;;;;;;4957618;28;20065;-70
2023/05/29 01:13:20;;;;;;;19.23;3.10;;;9.40;99.90;;;;;;4930869;29;20550;-71
2023/05/29 01:15:58;;;;;;;20.40;2.63;;;9.40;99.90;;;;;;4946698;29;20417;-70
2023/05/29 01:18:36;;;;;;;16.52;2.33;;;9.40;99.90;;;;;;4947492;28;20055;-70
2023/05/29 01:21:26;;;;;;;14.68;2.33;;;9.30;99.90;;;;;;4945761;29;20053;-70
2023/05/29 01:24:01;;;;;;;14.70;2.97;;;9.20;99.90;;;;;;4946389;28;20043;-71
2023/05/29 01:26:49;;;;;;;12.65;2.33;;;9.30;99.90;;;;;;4949637;29;20150;-71
2023/05/29 01:29:19;;;;;;;12.23;2.05;;;9.30;99.90;;;;;;4946714;28;20043;-70
2023/05/29 01:31:46;;;;;;;18.73;2.40;;;9.30;99.90;;;;;;4947818;29;20578;-71
2023/05/29 01:34:12;;;;;;;18.70;2.83;;;9.20;99.90;;;;;;4948906;29;20082;-68
2023/05/29 01:36:38;;;;;;;17.20;2.38;;;9.20;99.90;;;;;;4947544;29;20097;-70
2023/05/29 01:39:05;;;;;;;14.93;2.78;;;9.30;99.90;;;;;;4947498;28;20051;-70
2023/05/29 01:41:32;;;;;;;11.63;2.40;;;9.20;99.90;;;;;;4932456;29;20078;-70
2023/05/29 01:44:01;;;;;;;19.40;3.10;;;9.20;99.90;;;;;;4934230;29;20076;-70
2023/05/29 01:46:26;;;;;;;16.38;2.97;;;9.20;99.90;;;;;;4947513;29;20650;-70
2023/05/29 01:48:53;;;;;;;17.08;2.53;;;9.20;99.90;;;;;;4946989;28;20075;-72
2023/05/29 01:51:19;;;;;;;22.88;2.75;;;9.10;99.90;;;;;;4937108;28;20141;-72
2023/05/29 01:53:45;;;;;;;13.82;2.38;;;9.10;99.90;;;;;;4942386;28;20070;-73
2023/05/29 01:56:11;;;;;;;14.98;2.22;;;9.10;99.90;;;;;;4947261;29;20051;-71
2023/05/29 01:58:39;;;;;;;22.15;2.95;;;9.10;99.90;;;;;;4938336;28;20049;-72
2023/05/29 02:01:09;;;;;;;17.63;2.50;;;9.10;99.90;;;;;;4948672;29;20382;-72
2023/05/29 02:03:35;;;;;;;13.65;2.70;;;9.10;99.90;;;;;;4949018;28;20043;-72
2023/05/29 02:06:01;;;;;;;15.20;2.55;;;9.10;99.90;;;;;;4948170;29;20086;-72
2023/05/29 02:08:27;;;;;;;15.23;2.90;;;9.10;99.90;;;;;;4956286;28;20035;-72
2023/05/29 02:10:53;;;;;;;16.17;2.47;;;9.10;99.90;;;;;;4945707;29;20054;-71
2023/05/29 02:13:20;;;;;;;16.27;2.88;;;9.10;99.90;;;;;;4946445;29;20057;-72
2023/05/29 02:15:46;;;;;;;13.65;3.03;;;9.10;99.90;;;;;;4947560;29;20050;-72
2023/05/29 02:18:14;;;;;;;19.15;2.60;;;9.10;99.90;;;;;;4946076;28;20051;-70
2023/05/29 02:20:41;;;;;;;13.00;2.88;;;9.10;99.90;;;;;;4947035;29;20574;-70
2023/05/29 02:23:10;;;;;;;16.85;2.80;;;9.10;99.90;;;;;;4946387;28;20145;-70
2023/05/29 02:25:35;;;;;;;13.93;2.78;;;9.10;99.90;;;;;;4946448;28;20039;-70
2023/05/29 02:28:02;;;;;;;15.80;3.17;;;9.00;99.90;;;;;;4947297;28;20086;-70
2023/05/29 02:30:28;;;;;;;20.50;2.67;;;9.00;99.90;;;;;;4943367;29;20164;-70
2023/05/29 02:32:54;;;;;;;16.52;2.60;;;9.00;99.90;;;;;;4945445;29;20059;-70
2023/05/29 02:35:22;;;;;;;19.33;3.22;;;9.00;99.90;;;;;;4946422;29;20407;-70
2023/05/29 02:37:48;;;;;;;21.17;3.38;;;9.00;99.90;;;;;;4948520;28;20074;-68
2023/05/29 02:40:14;;;;;;;18.02;3.08;;;9.00;99.90;;;;;;4944724;29;20136;-72
2023/05/29 02:42:40;;;;;;;21.33;2.53;;;9.00;99.90;;;;;;4944452;28;20117;-72
2023/05/29 02:45:06;;;;;;;15.40;2.95;;;9.00;99.90;;;;;;4960702;28;20067;-72
2023/05/29 02:47:32;;;;;;;19.58;2.65;;;9.00;99.90;;;;;;4946332;29;20118;-72
2023/05/29 02:49:57;;;;;;;18.75;2.90;;;8.90;99.90;;;;;;4929878;29;20035;-72
2023/05/29 02:52:23;;;;;;;15.05;3.22;;;9.10;99.90;;;;;;4944150;28;20062;-72
2023/05/29 02:54:49;;;;;;;17.00;2.60;;;9.00;99.90;;;;;;4946002;29;20049;-72
2023/05/29 02:57:15;;;;;;;16.13;3.22;;;8.90;99.90;;;;;;4947822;28;20051;-71
2023/05/29 02:59:41;;;;;;;19.45;2.80;;;9.20;99.90;;;;;;4946607;28;20094;-72
2023/05/29 03:02:07;;;;;;;16.27;2.42;;;8.90;99.90;;;;;;4960033;28;20129;-72
2023/05/29 03:04:32;;;;;;;14.95;2.60;;;8.90;99.90;;;;;;4967249;28;20047;-72
2023/05/29 03:06:58;;;;;;;15.20;2.17;;;8.90;99.90;;;;;;4965995;28;20069;-72
2023/05/29 03:09:24;;;;;;;15.90;2.55;;;8.90;99.90;;;;;;4962151;28;20460;-72
2023/05/29 03:11:50;;;;;;;14.40;2.67;;;8.90;99.90;;;;;;4955070;28;20659;-72
2023/05/29 03:14:16;;;;;;;13.00;2.42;;;8.90;99.90;;;;;;4935677;29;20575;-72
2023/05/29 03:16:43;;;;;;;12.73;2.15;;;8.90;99.90;;;;;;4947811;29;20055;-72
2023/05/29 03:19:09;;;;;;;20.35;2.30;;;8.90;99.90;;;;;;4946014;29;20082;-71
2023/05/29 03:21:35;;;;;;;15.32;2.65;;;8.90;99.90;;;;;;4943244;28;20089;-72
2023/05/29 03:24:04;;;;;;;21.25;3.55;;;8.90;99.90;;;;;;4946968;28;20087;-71
2023/05/29 03:26:30;;;;;;;16.13;2.42;;;8.90;99.90;;;;;;4945905;29;20055;-70
2023/05/29 03:28:56;;;;;;;15.98;2.45;;;8.90;99.90;;;;;;4944500;29;20039;-70
2023/05/29 03:31:22;;;;;;;17.15;2.58;;;8.90;99.90;;;;;;4946781;28;20574;-70
2023/05/29 03:33:49;;;;;;;17.50;2.08;;;9.00;99.90;;;;;;4945760;29;20047;-70
2023/05/29 03:36:16;;;;;;;17.25;2.50;;;8.90;99.90;;;;;;4946245;29;20047;-69
2023/05/29 03:38:43;;;;;;;19.88;2.75;;;9.00;99.90;;;;;;4946569;29;20102;-69
2023/05/29 03:41:09;;;;;;;17.88;2.75;;;9.00;99.90;;;;;;4944609;28;20051;-70
2023/05/29 03:43:36;;;;;;;19.92;2.60;;;9.00;99.90;;;;;;4918290;29;20110;-70
2023/05/29 03:46:02;;;;;;;16.58;2.95;;;9.00;99.90;;;;;;4939628;29;20078;-70
2023/05/29 03:48:27;;;;;;;15.07;3.10;;;9.10;99.90;;;;;;4925771;29;20032;-70
2023/05/29 03:50:53;;;;;;;17.08;2.60;;;9.10;99.90;;;;;;4925220;29;20047;-69
2023/05/29 03:53:19;;;;;;;19.55;2.92;;;9.10;99.90;;;;;;4950570;28;20051;-70
2023/05/29 03:55:45;;;;;;;23.05;2.90;;;9.40;99.90;;;;;;4930231;28;20056;-70
2023/05/29 03:58:12;;;;;;;19.25;3.47;;;9.10;99.90;;;;;;4934219;29;20063;-72
2023/05/29 04:00:41;;;;;;;15.65;3.05;;;9.20;99.90;;;;;;4927690;28;20119;-72
2023/05/29 04:03:06;;;;;;;20.10;2.70;;;9.20;99.90;;;;;;4932950;29;20153;-72
2023/05/29 04:05:32;;;;;;;16.33;3.00;;;9.20;99.90;;;;;;4933302;28;20039;-72
2023/05/29 04:07:58;;;;;;;15.25;2.22;;;9.20;99.90;;;;;;4938419;29;20043;-72
2023/05/29 04:10:24;;;;;;;19.90;3.65;;;9.30;99.90;;;;;;4936662;29;20543;-72
2023/05/29 04:12:51;;;;;;;16.23;2.88;;;9.30;99.90;;;;;;4940976;28;20085;-73
2023/05/29 04:15:16;;;;;;;15.73;2.70;;;9.30;99.90;;;;;;4947829;29;20070;-72
2023/05/29 04:17:43;;;;;;;12.82;3.05;;;9.30;99.90;;;;;;4944752;29;20039;-72
2023/05/29 04:20:09;;;;;;;18.40;2.88;;;9.30;99.90;;;;;;4944976;29;20058;-72
2023/05/29 04:22:36;;;;;;;18.77;2.80;;;9.30;99.90;;;;;;4951919;28;20082;-72
2023/05/29 04:25:03;;;;;;;17.52;2.50;;;9.30;99.90;;;;;;4932462;29;20401;-72
2023/05/29 04:27:32;;;;;;;11.95;2.20;;;9.40;99.90;;;;;;4950183;28;20047;-72
2023/05/29 04:29:58;;;;;;;18.60;3.08;;;9.70;99.90;;;;;;4948771;29;20464;-72
2023/05/29 04:32:24;;;;;;;17.25;2.47;;;9.50;99.90;;;;;;4949796;28;20047;-72
2023/05/29 04:34:51;;;;;;;21.15;2.97;;;9.70;99.90;;;;;;4948350;29;20054;-72
2023/05/29 04:37:17;;;;;;;15.80;2.47;;;9.60;99.90;;;;;;4946946;28;20055;-72
2023/05/29 04:39:43;;;;;;;15.73;3.28;;;9.60;99.90;;;;;;4949570;28;20039;-71
2023/05/29 04:42:09;;;;;;;15.65;2.50;;;9.60;99.90;;;;;;4949494;28;20142;-71
2023/05/29 04:44:35;;;;;;;17.95;3.75;;;9.70;99.90;;;;;;4950537;28;20137;-72
2023/05/29 04:47:03;;;;;;;16.27;2.50;;;9.60;99.90;;;;;;4949042;29;20065;-72
2023/05/29 04:49:30;;;;;;;18.05;3.13;;;9.70;99.90;;;;;;4948214;29;20081;-73
2023/05/29 04:51:56;;;;;;;15.52;2.42;;;9.70;99.90;;;;;;4946014;28;20047;-72
2023/05/29 04:54:23;;;;;;;16.13;2.65;;;9.70;99.90;;;;;;4932951;29;20544;-72
2023/05/29 04:56:48;;;;;;;17.65;3.00;;;9.70;99.90;;;;;;4949153;29;20058;-70
2023/05/29 04:59:14;;;;;;;16.73;2.78;;;9.70;99.90;;;;;;4946575;28;20055;-69
2023/05/29 05:01:43;;;;;;;17.35;3.28;;;9.80;99.90;;;;;;4949059;29;20138;-70
2023/05/29 05:04:09;;;;;;;15.45;2.30;;;9.80;99.90;;;;;;4949321;28;20059;-70
2023/05/29 05:06:34;;;;;;;13.52;2.55;;;9.80;99.90;;;;;;4947806;29;20182;-70
2023/05/29 05:09:01;;;;;;;13.85;2.80;;;9.80;99.90;;;;;;4947422;28;20122;-71
2023/05/29 05:11:26;;;;;;;21.75;2.80;;;9.90;99.90;;;;;;4949762;28;20127;-70
2023/05/29 05:13:52;;;;;;;19.80;2.72;;;10.00;99.90;;;;;;4930729;29;20359;-70
2023/05/29 05:16:18;;;;;;;14.15;2.65;;;10.00;99.90;;;;;;4947475;29;20047;-70
2023/05/29 05:18:44;;;;;;;14.30;2.53;;;10.10;99.90;;;;;;4950980;28;20370;-69
2023/05/29 05:21:10;;;;;;;21.20;3.50;;;10.20;99.90;;;;;;4954436;28;20124;-70
2023/05/29 05:23:36;;;;;;;21.75;3.58;;;10.20;99.90;;;;;;4947884;29;20066;-69
2023/05/29 05:26:02;;;;;;;21.48;3.60;;;10.20;99.90;;;;;;4947539;29;20132;-70
2023/05/29 05:28:28;;;;;;;19.48;3.55;;;10.30;99.90;;;;;;4945304;28;20130;-69
2023/05/29 05:30:53;;;;;;;16.23;2.60;;;10.20;99.90;;;;;;4954629;28;20755;-69
2023/05/29 05:33:19;;;;;;;18.00;2.60;;;10.20;99.90;;;;;;4949934;28;20105;-70
2023/05/29 05:35:45;;;;;;;15.60;3.42;;;10.20;99.90;;;;;;4927539;29;20059;-68
2023/05/29 05:38:12;;;;;;;20.30;3.65;;;10.30;99.90;;;;;;4928415;29;20485;-70
2023/05/29 05:40:38;;;;;;;21.75;3.45;;;10.20;99.90;;;;;;4941055;28;20051;-69
2023/05/29 05:43:03;;;;;;;18.17;3.03;;;10.30;99.90;;;;;;4946440;29;20051;-71
2023/05/29 05:45:29;;;;;;;18.38;2.97;;;10.30;99.90;;;;;;4946103;29;20055;-69
2023/05/29 05:47:56;;;;;;;14.07;2.47;;;10.30;99.90;;;;;;4948364;28;20066;-70
2023/05/29 05:50:22;;;;;;;21.58;3.47;;;10.30;99.90;;;;;;4946951;29;20047;-70
2023/05/29 05:52:47;;;;;;;23.42;4.13;;;10.30;99.90;;;;;;4947244;28;20042;-70
2023/05/29 05:55:13;;;;;;;22.30;3.20;;;10.30;99.90;;;;;;4946106;29;20079;-70
2023/05/29 05:57:38;;;;;;;20.30;2.83;;;10.30;99.90;;;;;;4946995;28;20062;-70
2023/05/29 06:00:11;;;;;;;17.40;3.33;;;10.30;99.90;;;;;;4945880;28;20203;-70
2023/05/29 06:02:38;;;;;;;23.60;3.63;;;10.30;99.90;;;;;;4940427;28;20112;-71
2023/05/29 06:05:07;;;;;;;18.52;3.15;;;10.30;99.90;;;;;;4937177;29;20191;-70
2023/05/29 06:07:33;;;;;;;20.13;3.13;;;10.40;99.90;;;;;;4962487;28;20821;-70
2023/05/29 06:09:58;;;;;;;17.23;3.53;;;10.40;99.90;;;;;;4946761;29;20487;-70
2023/05/29 06:12:24;;;;;;;21.65;4.15;;;10.40;99.90;;;;;;4945113;28;20078;-70
2023/05/29 06:14:50;;;;;;;16.33;3.10;;;10.50;99.90;;;;;;4947462;29;20055;-70
2023/05/29 06:17:16;;;;;;;20.27;3.80;;;10.50;99.90;;;;;;4950381;28;20473;-70
2023/05/29 06:19:41;;;;;;;26.98;4.43;;;10.50;99.90;;;;;;4948195;29;20051;-70
2023/05/29 06:22:07;;;;;;;23.05;3.40;;;10.80;99.90;;;;;;4946784;29;20050;-70
2023/05/29 06:24:33;;;;;;;20.83;4.25;;;10.90;99.90;;;;;;4931141;29;20074;-70
2023/05/29 06:26:59;;;;;;;21.00;3.47;;;10.60;99.90;;;;;;4941668;28;20047;-71
2023/05/29 06:29:25;;;;;;;20.17;3.67;;;10.70;99.90;;;;;;4947960;28;20047;-71
2023/05/29 06:31:50;;;;;;;24.13;4.53;;;10.70;99.90;;;;;;4944932;28;20078;-70
2023/05/29 06:34:16;;;;;;;19.88;3.58;;;10.80;99.90;;;;;;4926566;29;20048;-71
2023/05/29 06:36:42;;;;;;;24.00;3.80;;;10.90;99.90;;;;;;4938769;29;20047;-71
2023/05/29 06:39:08;;;;;;;20.55;3.65;;;10.80;99.90;;;;;;4919805;29;20051;-70
2023/05/29 06:41:33;;;;;;;23.42;4.07;;;10.90;99.90;;;;;;4931589;28;20114;-70
2023/05/29 06:44:00;;;;;;;27.33;4.30;;;10.90;99.90;;;;;;4935044;28;20508;-71
2023/05/29 06:46:25;;;;;;;22.98;4.30;;;11.00;99.90;;;;;;4933916;28;20054;-70
2023/05/29 06:48:51;;;;;;;17.48;3.45;;;11.00;99.90;;;;;;4936729;28;20051;-71
2023/05/29 06:51:17;;;;;;;18.23;3.92;;;11.10;99.90;;;;;;4943907;28;20141;-70
2023/05/29 06:53:44;;;;;;;23.98;4.30;;;11.20;99.90;;;;;;4938053;29;20058;-71
2023/05/29 06:56:10;;;;;;;18.85;3.78;;;11.20;99.90;;;;;;4933324;28;20873;-70
2023/05/29 06:58:36;;;;;;;18.90;3.33;;;11.30;99.90;;;;;;4933214;29;20043;-70
2023/05/29 07:01:02;;;;;;;16.35;3.63;;;11.30;99.90;;;;;;4933921;28;20089;-70
2023/05/29 07:03:28;;;;;;;23.58;4.30;;;11.40;99.90;;;;;;4938450;29;20126;-70
2023/05/29 07:05:54;;;;;;;24.42;3.85;;;11.50;99.90;;;;;;4936996;29;20323;-70
2023/05/29 07:08:20;;;;;;;20.95;3.30;;;11.50;99.90;;;;;;4937374;29;20082;-70
2023/05/29 07:10:48;;;;;;;25.63;3.90;;;11.50;99.90;;;;;;4937799;28;20043;-70
2023/05/29 07:13:17;;;;;;;27.40;4.45;;;11.60;99.90;;;;;;4936139;28;20039;-69
2023/05/29 07:15:43;;;;;;;23.10;3.75;;;11.60;99.90;;;;;;4954484;28;20059;-70
2023/05/29 07:18:09;;;;;;;21.17;3.38;;;11.60;99.90;;;;;;4936667;28;20339;-70
2023/05/29 07:20:36;;;;;;;19.17;3.75;;;11.60;99.90;;;;;;4938526;29;20036;-70
2023/05/29 07:23:03;;;;;;;24.02;3.60;;;11.60;99.90;;;;;;4952301;28;20157;-70
2023/05/29 07:25:29;;;;;;;21.05;3.95;;;11.60;99.90;;;;;;4933702;29;20044;-70
2023/05/29 07:27:55;;;;;;;23.45;3.88;;;11.60;99.90;;;;;;4936519;29;20055;-69
2023/05/29 07:30:21;;;;;;;20.42;3.90;;;11.70;99.90;;;;;;4938545;28;20062;-70
2023/05/29 07:32:47;;;;;;;19.88;3.53;;;11.70;99.90;;;;;;4937934;28;20056;-71
2023/05/29 07:35:15;;;;;;;22.65;3.60;;;11.80;99.90;;;;;;4937662;29;20040;-71
2023/05/29 07:37:41;;;;;;;20.70;3.47;;;11.80;99.90;;;;;;4930548;28;20768;-70
2023/05/29 07:40:07;;;;;;;21.80;4.60;;;11.90;99.90;;;;;;4921154;29;20855;-70
2023/05/29 07:42:33;;;;;;;21.55;3.55;;;12.00;99.90;;;;;;4921072;29;20088;-71
2023/05/29 07:44:59;;;;;;;22.77;4.07;;;12.10;99.90;;;;;;4932757;29;20412;-71
2023/05/29 07:47:25;;;;;;;29.15;3.88;;;12.20;99.90;;;;;;4937522;29;20054;-71
2023/05/29 07:49:51;;;;;;;21.42;4.32;;;12.20;99.90;;;;;;4936361;29;20404;-71
2023/05/29 07:52:18;;;;;;;20.90;3.42;;;12.20;99.90;;;;;;4938128;29;20036;-71
2023/05/29 07:54:44;;;;;;;20.40;4.10;;;12.30;99.90;;;;;;4952758;28;20492;-73
2023/05/29 07:57:10;;;;;;;31.05;3.95;;;12.30;99.90;;;;;;4937280;28;21111;-70
2023/05/29 07:59:36;;;;;;;19.92;3.53;;;12.30;99.90;;;;;;4940834;28;20042;-69
2023/05/29 08:02:05;;;;;;;16.65;3.60;;;12.40;99.90;;;;;;4943103;29;20046;-70
2023/05/29 08:04:32;;;;;;;19.27;4.25;;;12.40;99.90;;;;;;4931873;28;20047;-69
2023/05/29 08:06:59;;;;;;;20.88;3.65;;;12.40;99.90;;;;;;4942759;28;20679;-69
2023/05/29 08:09:25;;;;;;;20.92;4.35;;;12.40;99.90;;;;;;4940209;28;20732;-70
2023/05/29 08:11:51;;;;;;;20.98;3.33;;;12.50;99.90;;;;;;4940091;28;20043;-70
2023/05/29 08:14:16;;;;;;;20.30;3.30;;;12.40;99.90;;;;;;4924761;28;20074;-71
2023/05/29 08:16:42;;;;;;;20.77;4.50;;;12.40;99.90;;;;;;4935974;28;20047;-69
2023/05/29 08:19:08;;;;;;;20.55;3.75;;;12.50;99.90;;;;;;4940639;28;20051;-71
2023/05/29 08:21:34;;;;;;;19.77;3.22;;;12.50;99.90;;;;;;4931349;28;20055;-72
2023/05/29 08:24:01;;;;;;;18.02;3.33;;;12.60;99.90;;;;;;4938212;28;20043;-71
2023/05/29 08:26:27;;;;;;;24.98;3.40;;;12.60;99.90;;;;;;4937196;28;20512;-71
2023/05/29 08:28:54;;;;;;;25.45;4.05;;;12.60;99.90;;;;;;4937441;28;20106;-71
2023/05/29 08:31:20;;;;;;;20.15;3.63;;;12.60;99.90;;;;;;4941454;28;20051;-71
2023/05/29 08:33:46;;;;;;;21.25;3.22;;;12.60;99.90;;;;;;4936379;28;20047;-71
2023/05/29 08:36:11;;;;;;;20.65;3.50;;;12.60;99.90;;;;;;4938913;28;20051;-70
2023/05/29 08:38:37;;;;;;;23.17;4.53;;;12.60;99.90;;;;;;4934953;28;20081;-70
2023/05/29 08:41:04;;;;;;;22.48;3.83;;;12.60;99.90;;;;;;4937516;28;20097;-70
2023/05/29 08:43:34;;;;;;;23.75;3.65;;;12.60;99.90;;;;;;4934865;29;20132;-71
2023/05/29 08:46:02;;;;;;;16.92;3.78;;;12.70;99.90;;;;;;4937728;29;20393;-70
2023/05/29 08:48:30;;;;;;;16.63;2.95;;;12.70;99.90;;;;;;4941107;29;20039;-68
2023/05/29 08:50:57;;;;;;;20.50;4.40;;;12.70;99.90;;;;;;4936396;29;20039;-70
2023/05/29 08:53:24;;;;;;;30.40;4.57;;;12.80;99.90;;;;;;4935148;28;20335;-69
2023/05/29 08:55:52;;;;;;;22.63;3.72;;;12.80;99.90;;;;;;4939619;29;20047;-70
2023/05/29 08:58:21;;;;;;;17.80;3.40;;;12.80;99.90;;;;;;4942035;29;20134;-70
2023/05/29 09:00:49;;;;;;;25.45;4.00;;;12.80;99.90;;;;;;4936833;28;20043;-70
2023/05/29 09:03:15;;;;;;;14.60;3.45;;;12.80;99.90;;;;;;4938357;28;20042;-70
2023/05/29 09:05:41;;;;;;;19.85;3.72;;;12.80;99.90;;;;;;4938471;28;20039;-69
2023/05/29 09:08:09;;;;;;;21.35;3.72;;;12.70;99.90;;;;;;4942240;28;20040;-69
2023/05/29 09:10:35;;;;;;;24.80;5.57;;;12.70;99.90;;;;;;4940095;28;20035;-70
2023/05/29 09:13:02;;;;;;;19.27;3.95;;;12.70;99.90;;;;;;4938699;28;20051;-70
2023/05/29 09:15:28;;;;;;;24.27;3.80;;;12.60;99.90;;;;;;4944174;28;20035;-71
2023/05/29 09:17:56;;;;;;;21.08;4.05;;;12.60;99.90;;;;;;4947676;28;20266;-69
2023/05/29 09:20:24;;;;;;;15.93;3.63;;;12.70;99.90;;;;;;4943208;28;20170;-70
2023/05/29 09:23:00;;;;;;;26.20;4.15;;;12.70;99.90;;;;;;4944955;28;20082;-70
2023/05/29 09:25:31;;;;;;;19.33;4.10;;;12.70;99.90;;;;;;4933873;28;20070;-70
2023/05/29 09:28:05;;;;;;;22.05;4.70;;;12.70;99.90;;;;;;4937454;28;20129;-69
2023/05/29 09:30:37;;;;;;;19.38;4.10;;;12.80;99.90;;;;;;4935442;28;20125;-70
2023/05/29 09:33:05;;;;;;;20.55;4.25;;;12.80;99.90;;;;;;4936986;28;20130;-72
2023/05/29 09:35:44;;;;;;;25.75;4.07;;;12.90;99.90;;;;;;4918619;28;20133;-72
2023/05/29 09:38:15;;;;;;;26.10;4.03;;;12.90;99.90;;;;;;4934594;28;20074;-73
2023/05/29 09:40:45;;;;;;;21.35;3.58;;;13.00;99.90;;;;;;4936100;28;20047;-73
2023/05/29 09:43:19;;;;;;;29.00;4.28;;;13.00;99.90;;;;;;4948850;28;20054;-72
2023/05/29 09:45:46;;;;;;;21.13;3.20;;;13.10;99.90;;;;;;4931449;28;20078;-72
2023/05/29 09:48:17;;;;;;;22.42;3.92;;;13.10;99.90;;;;;;4933100;28;20097;-72
2023/05/29 09:50:50;;;;;;;19.05;3.80;;;13.10;99.90;;;;;;4935722;28;20114;-73
2023/05/29 09:53:19;;;;;;;18.48;3.58;;;13.20;99.90;;;;;;4951114;28;20043;-73
2023/05/29 09:55:48;;;;;;;21.38;3.65;;;13.30;99.90;;;;;;4947726;28;20050;-73
2023/05/29 09:58:15;;;;;;;21.23;4.18;;;13.30;99.90;;;;;;4939792;28;20150;-73
2023/05/29 10:00:45;;;;;;;22.90;4.07;;;13.30;99.90;;;;;;4937776;28;20601;-73
2023/05/29 10:03:14;;;;;;;21.55;3.63;;;13.30;99.90;;;;;;4934999;28;20042;-71
2023/05/29 10:05:46;;;;;;;24.13;4.07;;;13.30;99.90;;;;;;4936787;28;20634;-72
2023/05/29 10:08:14;;;;;;;20.27;3.50;;;13.40;99.90;;;;;;4929302;28;20079;-73
2023/05/29 10:11:03;;;;;;;21.65;4.20;;;13.40;99.90;;;;;;4947179;28;20043;-72
2023/05/29 10:13:38;;;;;;;26.73;4.35;;;13.50;99.90;;;;;;4921448;29;20367;-72
2023/05/29 10:16:08;;;;;;;16.00;3.25;;;13.50;99.90;;;;;;4940224;28;20051;-72
2023/05/29 10:18:37;;;;;;;18.48;3.58;;;13.60;99.90;;;;;;4947944;28;20047;-72
2023/05/29 10:21:06;;;;;;;19.70;3.50;;;13.60;99.90;;;;;;4923751;29;20043;-73
2023/05/29 10:23:33;;;;;;;24.05;4.43;;;13.60;99.90;;;;;;4936236;28;20086;-73
2023/05/29 10:26:23;;;;;;;22.50;4.45;;;13.60;99.90;;;;;;4934476;28;20644;-71
2023/05/29 10:29:13;;;;;;;23.05;3.45;;;13.60;99.90;;;;;;4930185;28;20975;-72
2023/05/29 10:31:48;;;;;;;18.50;4.22;;;13.60;99.90;;;;;;4917108;28;20089;-70
2023/05/29 10:34:34;;;;;;;18.67;3.72;;;13.70;99.90;;;;;;4930983;28;20047;-71
2023/05/29 10:37:19;;;;;;;18.83;3.10;;;13.80;99.90;;;;;;4934902;28;20047;-73
2023/05/29 10:39:44;;;;;;;16.50;3.17;;;13.80;99.90;;;;;;4945583;28;20996;-71
2023/05/29 10:42:45;;;;;;;20.42;4.07;;;13.90;99.90;;;;;;4931499;28;20047;-70
2023/05/29 10:45:31;;;;;;;25.73;3.80;;;13.90;99.90;;;;;;4935101;28;20452;-72
2023/05/29 10:48:17;;;;;;;23.40;3.45;;;13.90;99.90;;;;;;4932427;28;20134;-73
2023/05/29 10:50:45;;;;;;;23.98;4.95;;;13.80;99.90;;;;;;4936134;28;20066;-72
2023/05/29 10:53:16;;;;;;;42.58;4.07;;;13.80;99.90;;;;;;4936435;28;20050;-72
2023/05/29 10:55:44;;;;;;;24.63;3.78;;;13.90;99.90;;;;;;4935863;29;20050;-72
2023/05/29 10:58:19;;;;;;;27.67;3.35;;;13.90;99.90;;;;;;4958838;28;20547;-72
2023/05/29 11:00:46;;;;;;;19.77;5.00;;;14.10;99.90;;;;;;4945404;28;20050;-73
2023/05/29 11:03:23;;;;;;;18.02;3.22;;;14.10;99.90;;;;;;4935999;29;20328;-73
2023/05/29 11:06:10;;;;;;;23.75;3.63;;;14.10;99.90;;;;;;4933917;28;20050;-73
2023/05/29 11:08:56;;;;;;;18.00;3.33;;;14.10;99.90;;;;;;4940537;28;20130;-72
2023/05/29 11:11:27;;;;;;;19.27;4.03;;;14.20;99.90;;;;;;4934237;28;20054;-72
2023/05/29 11:13:55;;;;;;;18.23;3.70;;;14.20;99.90;;;;;;4936896;28;20043;-72
2023/05/29 11:16:29;;;;;;;21.88;3.72;;;14.20;99.90;;;;;;4940531;28;20062;-73
2023/05/29 11:18:57;;;;;;;19.48;3.70;;;14.20;99.90;;;;;;4937418;28;20051;-72
2023/05/29 11:21:35;;;;;;;15.60;3.63;;;14.20;99.90;;;;;;4933310;29;20326;-72
2023/05/29 11:24:03;;;;;;;19.17;3.65;;;14.20;99.90;;;;;;4936855;29;20051;-72
2023/05/29 11:26:30;;;;;;;18.45;3.60;;;14.30;99.90;;;;;;4935526;28;20135;-72
2023/05/29 11:29:05;;;;;;;18.33;3.15;;;14.30;99.90;;;;;;4925909;28;20142;-72
2023/05/29 11:31:34;;;;;;;20.08;3.10;;;14.40;99.90;;;;;;4930635;28;20145;-71
2023/05/29 11:34:05;;;;;;;17.77;3.30;;;14.40;99.90;;;;;;4939862;29;20137;-72
2023/05/29 11:36:34;;;;;;;20.33;2.92;;;14.50;99.90;;;;;;4939316;28;20052;-72
2023/05/29 11:39:03;;;;;;;19.60;3.50;;;14.50;99.90;;;;;;4938997;28;20043;-69
2023/05/29 11:41:29;;;;;;;18.85;3.70;;;14.50;99.90;;;;;;4936976;29;20054;-69
2023/05/29 11:43:58;;;;;;;21.15;3.65;;;14.60;99.90;;;;;;4939504;28;20047;-69
2023/05/29 11:46:26;;;;;;;20.88;3.17;;;14.60;99.90;;;;;;4944640;28;20117;-70
2023/05/29 11:48:51;;;;;;;22.10;3.83;;;14.70;99.90;;;;;;4943443;28;20054;-73
2023/05/29 11:51:17;;;;;;;17.50;3.30;;;14.70;99.90;;;;;;4940468;29;20522;-72
2023/05/29 11:53:46;;;;;;;17.73;3.22;;;14.70;99.90;;;;;;4938483;28;20549;-73
2023/05/29 11:56:12;;;;;;;17.08;3.55;;;14.70;99.90;;;;;;4949016;28;20794;-72
2023/05/29 11:58:39;;;;;;;16.50;3.30;;;14.70;99.90;;;;;;4934423;28;20047;-72
2023/05/29 12:01:07;;;;;;;13.73;2.72;;;14.70;99.90;;;;;;4938243;28;20126;-72
2023/05/29 12:03:43;;;;;;;18.33;3.70;;;14.70;99.90;;;;;;4943897;28;20047;-72
2023/05/29 12:06:10;;;;;;;16.13;3.08;;;14.70;99.90;;;;;;4948681;28;20050;-72
2023/05/29 12:08:37;;;;;;;18.35;3.20;;;14.70;99.90;;;;;;4936337;28;20511;-72
2023/05/29 12:11:03;;;;;;;17.10;3.72;;;14.70;99.90;;;;;;4940998;29;20051;-72
2023/05/29 12:13:29;;;;;;;18.88;3.47;;;14.60;99.90;;;;;;4938090;29;20058;-72
2023/05/29 12:15:58;;;;;;;19.25;3.10;;;14.70;99.90;;;;;;4939707;28;20039;-72
2023/05/29 12:18:25;;;;;;;19.13;3.63;;;14.70;99.90;;;;;;4940792;29;20566;-72
2023/05/29 12:20:56;;;;;;;17.70;3.45;;;14.70;99.90;;;;;;4947210;28;20127;-71
2023/05/29 12:23:22;;;;;;;15.30;3.63;;;14.60;99.90;;;;;;4940412;29;20058;-72
2023/05/29 12:25:48;;;;;;;23.95;3.60;;;14.70;99.90;;;;;;4944147;28;20070;-72
2023/05/29 12:28:18;;;;;;;15.50;3.65;;;14.70;99.90;;;;;;4937309;28;20047;-73
2023/05/29 12:30:49;;;;;;;16.95;4.43;;;14.70;99.90;;;;;;4941011;28;20936;-74
2023/05/29 12:33:32;;;;;;;17.70;3.60;;;14.70;99.90;;;;;;4947777;28;20082;-74
2023/05/29 12:36:09;;;;;;;15.20;3.08;;;14.70;99.90;;;;;;4959364;28;20039;-74
2023/05/29 12:38:49;;;;;;;16.23;2.78;;;14.70;99.90;;;;;;4942196;29;20051;-75
2023/05/29 12:41:26;;;;;;;14.98;2.80;;;14.80;99.90;;;;;;4940435;28;20979;-75
2023/05/29 12:44:00;;;;;;;18.13;3.40;;;14.80;99.90;;;;;;4944845;28;20468;-73
2023/05/29 12:46:26;;;;;;;14.38;3.42;;;14.90;99.90;;;;;;4931582;28;20526;-73